Time;durP1;ratioP1;P1;durP2;ratioP2;P2;SDS_P1;SDS_P2;PMS_P1;PMS_P2;Temp;Humidity;BMP_temperature;BMP_pressure;BME280_temperature;BME280_humidity;BME280_pressure;Samples;Min_cycle;Max_cycle;Signal;HPM_P1;HPM_P2
2023/07/14 00:00:31;;;;;;;3.20;1.63;;;15.60;1.00;;;;;;5076267;28;20209;-43
2023/07/14 00:02:58;;;;;;;3.57;1.70;;;15.50;1.00;;;;;;5075946;28;20171;-41
2023/07/14 00:05:31;;;;;;;3.47;1.80;;;15.50;1.00;;;;;;5075843;28;20684;-42
2023/07/14 00:07:58;;;;;;;4.10;1.87;;;15.50;1.00;;;;;;5075839;28;20180;-43
2023/07/14 00:10:30;;;;;;;3.40;2.10;;;15.40;1.00;;;;;;5075975;28;20196;-40
2023/07/14 00:12:57;;;;;;;2.73;1.80;;;15.40;1.00;;;;;;5076067;28;20167;-43
2023/07/14 00:15:23;;;;;;;2.93;2.10;;;15.40;1.00;;;;;;5075169;28;20196;-38
2023/07/14 00:17:52;;;;;;;5.80;2.00;;;15.30;1.00;;;;;;5075927;28;20183;-43
2023/07/14 00:20:27;;;;;;;10.33;2.40;;;15.30;1.00;;;;;;5075612;28;20184;-41
2023/07/14 00:22:54;;;;;;;3.43;1.90;;;15.20;1.00;;;;;;5075941;28;20175;-41
2023/07/14 00:25:24;;;;;;;4.03;2.10;;;15.20;1.00;;;;;;5075850;28;20210;-40
2023/07/14 00:27:51;;;;;;;4.87;1.90;;;15.20;1.00;;;;;;5075829;28;20620;-41
2023/07/14 00:30:23;;;;;;;4.33;2.00;;;15.20;1.00;;;;;;5075620;28;20281;-41
2023/07/14 00:32:51;;;;;;;3.87;2.10;;;15.20;1.00;;;;;;5075817;28;20162;-40
2023/07/14 00:35:26;;;;;;;2.57;2.23;;;15.20;1.00;;;;;;5075659;28;20200;-41
2023/07/14 00:37:54;;;;;;;6.17;2.37;;;15.20;1.00;;;;;;5075615;28;20525;-42
2023/07/14 00:40:38;;;;;;;6.10;2.40;;;15.20;1.00;;;;;;5075484;28;20636;-41
2023/07/14 00:43:05;;;;;;;4.03;2.13;;;15.20;1.00;;;;;;5075558;28;20255;-43
2023/07/14 00:45:34;;;;;;;2.40;1.80;;;15.30;1.00;;;;;;5075095;28;20249;-42
2023/07/14 00:48:05;;;;;;;5.37;2.17;;;15.30;1.00;;;;;;5075159;28;20176;-42
2023/07/14 00:50:40;;;;;;;3.83;2.17;;;15.40;1.00;;;;;;5075370;28;20548;-41
2023/07/14 00:53:34;;;;;;;5.07;1.87;;;15.40;1.00;;;;;;5074198;28;20189;-40
2023/07/14 00:56:14;;;;;;;6.63;2.37;;;15.40;1.00;;;;;;5072055;28;20226;-42
2023/07/14 00:58:45;;;;;;;6.70;2.17;;;15.30;1.00;;;;;;5074897;28;20179;-42
2023/07/14 01:01:21;;;;;;;3.73;2.17;;;15.30;1.00;;;;;;5075142;28;20226;-42
2023/07/14 01:03:52;;;;;;;3.67;2.33;;;15.40;1.00;;;;;;5075238;28;20163;-41
2023/07/14 01:06:21;;;;;;;5.87;1.90;;;15.40;1.00;;;;;;5074998;28;20191;-43
2023/07/14 01:08:54;;;;;;;3.60;2.50;;;15.30;1.00;;;;;;5074486;28;20213;-42
2023/07/14 01:11:42;;;;;;;5.67;2.53;;;15.40;1.00;;;;;;5074671;28;20563;-42
2023/07/14 01:14:13;;;;;;;6.20;2.30;;;15.30;1.00;;;;;;5060373;28;20202;-41
2023/07/14 01:16:40;;;;;;;4.07;2.10;;;15.30;1.00;;;;;;5074521;28;20192;-41
2023/07/14 01:19:17;;;;;;;6.50;2.73;;;15.30;1.00;;;;;;5074641;28;20175;-42
2023/07/14 01:21:47;;;;;;;6.43;2.40;;;15.20;1.00;;;;;;5074901;28;20189;-41
2023/07/14 01:24:24;;;;;;;5.67;2.20;;;15.20;1.00;;;;;;5074736;28;20183;-42
2023/07/14 01:27:05;;;;;;;2.60;1.83;;;15.20;1.00;;;;;;5073544;28;20159;-42
2023/07/14 01:29:32;;;;;;;4.17;2.43;;;15.20;1.00;;;;;;5074476;28;20270;-43
2023/07/14 01:31:58;;;;;;;4.83;2.40;;;15.20;1.00;;;;;;5074487;28;20258;-40
2023/07/14 01:34:24;;;;;;;6.20;2.43;;;15.10;1.00;;;;;;5074659;28;20175;-42
2023/07/14 01:36:49;;;;;;;4.77;2.10;;;15.10;1.00;;;;;;5074904;28;20180;-42
2023/07/14 01:39:16;;;;;;;4.27;1.83;;;15.10;1.00;;;;;;5076432;28;20213;-42
2023/07/14 01:41:42;;;;;;;3.00;2.07;;;15.10;1.00;;;;;;5078891;28;20202;-42
2023/07/14 01:44:16;;;;;;;4.77;2.10;;;15.10;1.00;;;;;;5080430;28;20684;-42
2023/07/14 01:46:42;;;;;;;4.37;2.20;;;15.10;1.00;;;;;;5077355;28;20282;-40
2023/07/14 01:49:26;;;;;;;4.17;2.03;;;15.10;1.00;;;;;;5074952;28;20203;-42
2023/07/14 01:51:57;;;;;;;2.93;1.77;;;15.00;1.00;;;;;;5074044;28;20171;-40
2023/07/14 01:54:48;;;;;;;2.80;1.90;;;15.00;1.00;;;;;;5074671;28;20156;-42
2023/07/14 01:57:17;;;;;;;3.27;2.30;;;15.00;1.00;;;;;;5074278;28;20172;-41
2023/07/14 01:59:51;;;;;;;2.63;1.97;;;14.90;1.00;;;;;;5073751;28;20180;-43
2023/07/14 02:02:26;;;;;;;2.63;1.90;;;14.90;1.00;;;;;;5073993;28;20191;-42
2023/07/14 02:04:52;;;;;;;5.50;2.07;;;14.80;1.00;;;;;;5073871;28;20201;-41
2023/07/14 02:07:18;;;;;;;2.27;1.47;;;14.80;1.00;;;;;;5073990;28;20597;-42
2023/07/14 02:09:45;;;;;;;5.67;2.10;;;14.70;1.00;;;;;;5074189;28;20666;-43
2023/07/14 02:12:26;;;;;;;3.43;2.10;;;14.70;1.00;;;;;;5075498;28;20179;-42
2023/07/14 02:15:00;;;;;;;3.47;1.77;;;14.70;1.00;;;;;;5075482;28;20204;-43
2023/07/14 02:17:33;;;;;;;2.47;1.73;;;14.70;1.00;;;;;;5073720;28;20217;-39
2023/07/14 02:20:03;;;;;;;3.97;2.00;;;14.60;1.00;;;;;;5073776;28;20547;-41
2023/07/14 02:22:31;;;;;;;3.93;2.17;;;14.60;1.00;;;;;;5073411;28;20655;-41
2023/07/14 02:24:58;;;;;;;3.83;2.13;;;14.60;1.00;;;;;;5073338;28;20770;-41
2023/07/14 02:27:24;;;;;;;2.97;1.80;;;14.50;1.00;;;;;;5073386;28;20229;-42
2023/07/14 02:29:49;;;;;;;3.20;2.03;;;14.50;1.00;;;;;;5072134;28;20581;-40
2023/07/14 02:32:44;;;;;;;5.40;2.23;;;14.50;1.00;;;;;;5073323;28;20179;-41
2023/07/14 02:35:39;;;;;;;3.77;2.00;;;14.40;1.00;;;;;;5070968;28;20207;-41
2023/07/14 02:38:15;;;;;;;4.00;1.93;;;14.40;1.00;;;;;;5062100;28;20179;-41
2023/07/14 02:40:54;;;;;;;5.23;2.00;;;14.30;1.00;;;;;;5073433;28;20171;-42
2023/07/14 02:43:21;;;;;;;3.47;1.77;;;14.30;1.00;;;;;;5073537;28;20163;-41
2023/07/14 02:45:58;;;;;;;4.13;1.77;;;14.20;1.00;;;;;;5073386;28;20562;-41
2023/07/14 02:48:33;;;;;;;3.10;2.00;;;14.20;1.00;;;;;;5073203;28;20186;-42
2023/07/14 02:50:58;;;;;;;2.37;1.93;;;14.20;1.00;;;;;;5073764;28;20160;-42
2023/07/14 02:53:24;;;;;;;3.10;2.03;;;14.10;1.00;;;;;;5073164;28;20254;-41
2023/07/14 02:55:50;;;;;;;2.40;1.80;;;14.00;1.00;;;;;;5073311;28;20188;-43
2023/07/14 02:58:15;;;;;;;3.57;2.07;;;14.00;1.00;;;;;;5073121;28;20179;-42
2023/07/14 03:00:41;;;;;;;3.60;1.77;;;14.00;1.00;;;;;;5073492;28;20210;-41
2023/07/14 03:03:06;;;;;;;4.13;1.80;;;13.90;1.00;;;;;;5073229;28;20640;-40
2023/07/14 03:05:32;;;;;;;4.70;2.30;;;13.90;1.00;;;;;;5072916;28;20593;-42
2023/07/14 03:07:58;;;;;;;3.90;2.33;;;13.80;1.00;;;;;;5073149;28;20207;-43
2023/07/14 03:10:23;;;;;;;3.70;1.90;;;13.80;1.00;;;;;;5073076;28;20196;-42
2023/07/14 03:12:49;;;;;;;4.67;2.20;;;13.70;1.00;;;;;;5073174;28;20214;-42
2023/07/14 03:15:15;;;;;;;3.03;2.00;;;13.70;1.00;;;;;;5072810;28;20183;-43
2023/07/14 03:17:40;;;;;;;5.60;2.23;;;13.60;1.00;;;;;;5073121;28;20519;-40
2023/07/14 03:20:10;;;;;;;4.20;2.10;;;13.60;1.00;;;;;;5072839;28;20667;-42
2023/07/14 03:22:36;;;;;;;2.30;2.10;;;13.60;1.00;;;;;;5073056;28;20188;-41
2023/07/14 03:25:01;;;;;;;2.73;1.93;;;13.50;1.00;;;;;;5072703;28;20706;-42
2023/07/14 03:27:27;;;;;;;3.93;1.93;;;13.40;1.00;;;;;;5072740;28;20648;-41
2023/07/14 03:29:54;;;;;;;2.53;1.90;;;13.40;1.00;;;;;;5072732;28;20648;-42
2023/07/14 03:32:19;;;;;;;3.47;1.97;;;13.40;1.00;;;;;;5072989;28;20175;-41
2023/07/14 03:34:46;;;;;;;2.73;1.90;;;13.40;1.00;;;;;;5072644;28;20690;-40
2023/07/14 03:37:12;;;;;;;3.40;2.23;;;13.30;1.00;;;;;;5072642;28;20168;-42
2023/07/14 03:39:37;;;;;;;4.60;2.10;;;13.30;1.00;;;;;;5072714;28;20649;-44
2023/07/14 03:42:03;;;;;;;4.37;2.20;;;13.30;1.00;;;;;;5072620;28;20202;-41
2023/07/14 03:44:29;;;;;;;3.43;2.27;;;13.30;1.00;;;;;;5072510;28;20266;-42
2023/07/14 03:46:55;;;;;;;3.67;2.10;;;13.30;1.00;;;;;;5072836;28;20601;-41
2023/07/14 03:49:20;;;;;;;5.10;2.07;;;13.30;1.00;;;;;;5073720;28;20219;-41
2023/07/14 03:51:46;;;;;;;2.70;1.63;;;13.30;1.00;;;;;;5076350;28;20655;-42
2023/07/14 03:54:12;;;;;;;4.00;2.30;;;13.20;1.00;;;;;;5076326;28;20182;-42
2023/07/14 03:56:37;;;;;;;2.63;1.77;;;13.20;1.00;;;;;;5076059;28;20284;-40
2023/07/14 03:59:03;;;;;;;6.10;2.17;;;13.20;1.00;;;;;;5076290;28;20695;-41
2023/07/14 04:01:30;;;;;;;4.33;2.00;;;13.20;1.00;;;;;;5075918;28;20231;-43
2023/07/14 04:03:56;;;;;;;3.37;1.90;;;13.10;1.00;;;;;;5076548;28;20272;-42
2023/07/14 04:06:22;;;;;;;3.03;1.83;;;13.20;1.00;;;;;;5075787;28;20202;-40
2023/07/14 04:08:52;;;;;;;2.73;2.10;;;13.20;1.00;;;;;;5075888;28;20296;-42
2023/07/14 04:11:18;;;;;;;6.30;2.23;;;13.20;1.00;;;;;;5076179;28;20186;-42
2023/07/14 04:13:44;;;;;;;2.63;1.90;;;13.10;1.00;;;;;;5076331;28;20624;-42
2023/07/14 04:16:09;;;;;;;2.73;1.80;;;13.20;1.00;;;;;;5075646;28;20199;-42
2023/07/14 04:18:36;;;;;;;2.93;1.83;;;13.10;1.00;;;;;;5075757;28;20184;-42
2023/07/14 04:21:07;;;;;;;3.00;2.17;;;13.20;1.00;;;;;;5075918;28;20184;-40
2023/07/14 04:23:33;;;;;;;3.67;2.50;;;13.20;1.00;;;;;;5074370;28;20267;-42
2023/07/14 04:25:59;;;;;;;3.50;2.20;;;13.10;1.00;;;;;;5075497;28;20283;-42
2023/07/14 04:28:25;;;;;;;3.60;2.00;;;13.20;1.00;;;;;;5075633;28;20214;-43
2023/07/14 04:30:58;;;;;;;2.67;2.00;;;13.10;1.00;;;;;;5075712;28;20611;-42
2023/07/14 04:33:24;;;;;;;3.93;2.07;;;13.10;1.00;;;;;;5075520;28;20209;-43
2023/07/14 04:35:54;;;;;;;3.23;1.97;;;13.20;1.00;;;;;;5075327;28;20207;-44
2023/07/14 04:38:21;;;;;;;4.90;2.40;;;13.20;1.00;;;;;;5074019;28;20183;-42
2023/07/14 04:40:47;;;;;;;6.10;2.40;;;13.20;1.00;;;;;;5073915;28;20188;-42
2023/07/14 04:43:13;;;;;;;4.07;2.50;;;13.20;1.00;;;;;;5075415;28;20268;-42
2023/07/14 04:45:42;;;;;;;5.30;2.20;;;13.30;1.00;;;;;;5075236;28;20572;-39
2023/07/14 04:48:09;;;;;;;3.53;2.20;;;13.40;1.00;;;;;;5073846;28;20682;-41
2023/07/14 04:50:36;;;;;;;2.43;2.00;;;13.40;1.00;;;;;;5075145;28;20665;-41
2023/07/14 04:53:05;;;;;;;4.07;2.50;;;13.50;1.00;;;;;;5075416;28;20180;-41
2023/07/14 04:55:38;;;;;;;5.30;2.33;;;13.60;1.00;;;;;;5075195;28;20694;-40
2023/07/14 04:58:04;;;;;;;3.73;2.20;;;13.70;1.00;;;;;;5075577;28;20172;-41
2023/07/14 05:00:30;;;;;;;4.47;2.40;;;13.70;1.00;;;;;;5074830;28;20190;-40
2023/07/14 05:02:56;;;;;;;3.10;2.13;;;13.80;1.00;;;;;;5074987;28;20184;-41
2023/07/14 05:05:24;;;;;;;5.23;2.37;;;13.90;1.00;;;;;;5075272;28;20202;-43
2023/07/14 05:07:50;;;;;;;4.00;2.60;;;13.90;2.00;;;;;;5073472;28;20765;-41
2023/07/14 05:10:17;;;;;;;3.70;2.30;;;14.00;11.20;;;;;;5074715;28;20227;-39
2023/07/14 05:12:43;;;;;;;4.57;2.30;;;14.10;15.50;;;;;;5074745;28;20172;-43
2023/07/14 05:15:11;;;;;;;8.50;2.30;;;14.20;18.00;;;;;;5074845;28;20692;-40
2023/07/14 05:17:38;;;;;;;5.23;2.53;;;14.30;21.30;;;;;;5074535;28;20663;-42
2023/07/14 05:20:12;;;;;;;6.47;2.57;;;14.40;26.80;;;;;;5074577;28;20183;-42
2023/07/14 05:22:39;;;;;;;9.27;2.83;;;14.40;29.30;;;;;;5074821;28;20168;-41
2023/07/14 05:25:05;;;;;;;6.33;2.53;;;14.50;37.20;;;;;;5074457;28;20229;-43
2023/07/14 05:27:31;;;;;;;5.10;2.67;;;14.70;43.50;;;;;;5073292;28;20266;-42
2023/07/14 05:29:57;;;;;;;6.67;2.77;;;14.80;50.80;;;;;;5073123;28;20691;-41
2023/07/14 05:32:24;;;;;;;4.97;3.27;;;14.90;62.10;;;;;;5074234;28;20180;-42
2023/07/14 05:34:50;;;;;;;4.90;3.20;;;15.00;77.80;;;;;;5074651;28;20212;-42
2023/07/14 05:37:17;;;;;;;5.83;2.60;;;15.10;85.40;;;;;;5074520;28;20183;-41
2023/07/14 05:39:42;;;;;;;5.10;2.70;;;15.30;81.50;;;;;;5074510;28;20183;-41
2023/07/14 05:42:08;;;;;;;5.40;2.83;;;15.40;73.00;;;;;;5074199;28;20249;-41
2023/07/14 05:44:34;;;;;;;7.77;2.90;;;15.50;70.00;;;;;;5074710;28;20686;-41
2023/07/14 05:47:00;;;;;;;5.20;3.10;;;15.70;65.90;;;;;;5074805;28;20236;-41
2023/07/14 05:49:25;;;;;;;5.20;2.43;;;15.80;71.50;;;;;;5074125;28;20207;-41
2023/07/14 05:51:52;;;;;;;5.87;2.50;;;15.90;83.00;;;;;;5072651;28;20198;-42
2023/07/14 05:54:17;;;;;;;4.67;2.63;;;16.10;74.20;;;;;;5074102;28;20175;-42
2023/07/14 05:56:43;;;;;;;5.03;2.50;;;16.20;55.70;;;;;;5074005;28;20206;-42
2023/07/14 05:59:10;;;;;;;5.40;2.53;;;16.40;30.20;;;;;;5073891;28;20266;-41
2023/07/14 06:01:36;;;;;;;3.00;2.00;;;16.60;14.50;;;;;;5073944;28;20643;-43
2023/07/14 06:04:02;;;;;;;4.93;2.50;;;16.70;6.60;;;;;;5074373;28;20190;-41
2023/07/14 06:06:27;;;;;;;3.13;2.37;;;16.90;4.60;;;;;;5073872;28;20317;-42
2023/07/14 06:08:55;;;;;;;2.93;1.97;;;17.00;1.00;;;;;;5073900;28;20206;-41
2023/07/14 06:11:20;;;;;;;7.03;2.10;;;17.10;1.00;;;;;;5073678;28;20191;-41
2023/07/14 06:13:46;;;;;;;5.80;2.30;;;17.40;1.00;;;;;;5073355;28;20176;-41
2023/07/14 06:16:11;;;;;;;4.37;2.20;;;17.50;1.00;;;;;;5073939;28;20275;-42
2023/07/14 06:18:38;;;;;;;5.80;2.00;;;17.60;1.00;;;;;;5073650;28;20183;-41
2023/07/14 06:21:03;;;;;;;5.50;1.87;;;17.80;1.00;;;;;;5073754;28;20547;-42
2023/07/14 06:23:29;;;;;;;4.63;1.50;;;18.00;1.00;;;;;;5074117;28;20184;-42
2023/07/14 06:25:57;;;;;;;2.93;1.50;;;18.20;1.00;;;;;;5073922;28;20254;-42
2023/07/14 06:28:24;;;;;;;5.73;2.00;;;18.40;1.00;;;;;;5073697;28;20172;-40
2023/07/14 06:30:56;;;;;;;4.47;1.70;;;18.50;1.00;;;;;;5073889;28;20200;-42
2023/07/14 06:33:22;;;;;;;6.10;2.00;;;18.70;1.00;;;;;;5073895;28;20160;-41
2023/07/14 06:35:48;;;;;;;3.27;1.60;;;18.90;1.00;;;;;;5073532;28;20296;-42
2023/07/14 06:38:13;;;;;;;4.03;1.97;;;19.20;1.00;;;;;;5074217;28;20183;-42
2023/07/14 06:40:39;;;;;;;3.00;1.67;;;19.40;1.00;;;;;;5073638;28;20218;-41
2023/07/14 06:43:07;;;;;;;4.03;1.90;;;19.60;1.00;;;;;;5073806;28;20206;-43
2023/07/14 06:45:33;;;;;;;4.33;1.50;;;19.90;1.00;;;;;;5073589;28;20207;-42
2023/07/14 06:47:59;;;;;;;3.23;1.80;;;20.10;1.00;;;;;;5073634;28;20183;-42
2023/07/14 06:50:25;;;;;;;3.63;2.17;;;20.40;99.90;;;;;;5073526;28;20561;-41
2023/07/14 06:52:51;;;;;;;5.27;2.10;;;20.70;1.00;;;;;;5073610;28;20172;-42
2023/07/14 06:55:17;;;;;;;3.47;1.40;;;20.90;99.90;;;;;;5073223;28;20195;-43
2023/07/14 06:57:42;;;;;;;5.00;1.80;;;21.10;29.60;;;;;;5073113;28;20180;-42
2023/07/14 07:00:12;;;;;;;6.00;2.20;;;21.30;1.00;;;;;;5073412;28;20183;-41
2023/07/14 07:02:38;;;;;;;6.30;1.53;;;21.60;1.00;;;;;;5073581;28;20193;-44
2023/07/14 07:05:06;;;;;;;3.93;1.80;;;21.80;99.90;;;;;;5073013;28;20199;-42
2023/07/14 07:07:35;;;;;;;6.07;1.83;;;22.00;1.00;;;;;;5073477;28;20183;-42
2023/07/14 07:10:01;;;;;;;3.50;1.40;;;22.20;1.00;;;;;;5073056;28;20591;-43
2023/07/14 07:12:26;;;;;;;3.10;1.33;;;22.30;99.90;;;;;;5073291;28;20186;-44
2023/07/14 07:14:52;;;;;;;7.60;1.50;;;22.40;99.90;;;;;;5074111;28;20560;-40
2023/07/14 07:17:18;;;;;;;2.53;1.33;;;22.50;99.90;;;;;;5073624;28;20202;-43
2023/07/14 07:19:43;;;;;;;2.57;1.40;;;22.50;1.00;;;;;;5073766;28;20706;-43
2023/07/14 07:22:09;;;;;;;4.30;1.67;;;22.60;1.00;;;;;;5074010;28;20618;-42
2023/07/14 07:24:35;;;;;;;4.60;1.70;;;22.60;19.90;;;;;;5075456;28;20180;-42
2023/07/14 07:27:02;;;;;;;4.17;1.50;;;22.50;1.00;;;;;;5076999;28;20640;-44
2023/07/14 07:29:30;;;;;;;5.23;1.60;;;22.60;1.00;;;;;;5076756;28;20618;-42
2023/07/14 07:31:56;;;;;;;2.57;1.37;;;22.80;1.00;;;;;;5077099;28;20521;-40
2023/07/14 07:34:21;;;;;;;3.17;1.40;;;23.00;99.90;;;;;;5077012;28;20180;-43
2023/07/14 07:36:47;;;;;;;2.97;1.50;;;23.10;99.90;;;;;;5076588;28;20255;-41
2023/07/14 07:39:12;;;;;;;5.17;1.77;;;23.40;99.90;;;;;;5076675;28;20671;-42
2023/07/14 07:41:39;;;;;;;5.13;1.50;;;23.50;1.00;;;;;;5076705;28;20687;-41
2023/07/14 07:44:08;;;;;;;2.27;1.30;;;23.60;99.90;;;;;;5076879;28;20178;-43
2023/07/14 07:46:34;;;;;;;2.50;1.17;;;23.70;99.90;;;;;;5076567;28;20214;-42
2023/07/14 07:49:00;;;;;;;6.53;1.50;;;23.60;99.90;;;;;;5076647;28;20552;-41
2023/07/14 07:51:26;;;;;;;3.67;1.73;;;23.60;1.00;;;;;;5076845;28;20175;-41
2023/07/14 07:53:51;;;;;;;2.87;1.30;;;23.60;1.00;;;;;;5076883;28;20172;-41
2023/07/14 07:56:17;;;;;;;5.20;1.53;;;23.60;1.00;;;;;;5076260;28;20566;-42
2023/07/14 07:58:43;;;;;;;1.90;1.30;;;23.70;31.50;;;;;;5076270;28;20254;-43
2023/07/14 08:01:17;;;;;;;2.50;1.30;;;23.80;99.90;;;;;;5076503;28;20203;-43
2023/07/14 08:03:43;;;;;;;6.07;1.70;;;23.80;99.90;;;;;;5076177;28;20247;-44
2023/07/14 08:06:08;;;;;;;5.07;1.60;;;24.00;99.90;;;;;;5076116;28;20619;-44
2023/07/14 08:08:34;;;;;;;2.50;1.40;;;24.10;23.70;;;;;;5076436;28;20191;-42
2023/07/14 08:11:00;;;;;;;3.30;1.40;;;24.20;1.00;;;;;;5076250;28;20203;-43
2023/07/14 08:13:28;;;;;;;4.00;1.43;;;24.20;1.00;;;;;;5076071;28;20255;-43
2023/07/14 08:15:55;;;;;;;3.90;1.70;;;24.40;99.90;;;;;;5076329;28;20202;-43
2023/07/14 08:18:21;;;;;;;3.90;1.50;;;24.40;99.90;;;;;;5075963;28;20172;-41
2023/07/14 08:20:48;;;;;;;1.87;1.37;;;24.40;1.00;;;;;;5076133;28;20203;-43
2023/07/14 08:23:15;;;;;;;2.23;1.30;;;24.50;99.90;;;;;;5076304;28;20195;-42
2023/07/14 08:25:40;;;;;;;4.17;1.60;;;24.60;1.00;;;;;;5075958;28;20690;-42
2023/07/14 08:28:06;;;;;;;4.83;1.90;;;24.70;1.00;;;;;;5076104;28;20176;-41
2023/07/14 08:30:32;;;;;;;5.87;2.43;;;24.80;80.70;;;;;;5075864;28;20278;-42
2023/07/14 08:32:58;;;;;;;5.17;2.00;;;24.90;1.00;;;;;;5075834;28;20638;-43
2023/07/14 08:35:24;;;;;;;5.20;1.57;;;25.00;1.00;;;;;;5075155;28;20566;-44
2023/07/14 08:37:50;;;;;;;5.47;1.70;;;25.10;1.00;;;;;;5075472;28;20172;-42
2023/07/14 08:40:23;;;;;;;4.97;1.90;;;25.20;1.00;;;;;;5075593;28;20597;-43
2023/07/14 08:43:24;;;;;;;4.20;1.80;;;25.20;99.90;;;;;;5076048;28;20213;-44
2023/07/14 08:46:10;;;;;;;4.80;1.83;;;25.30;30.90;;;;;;5044342;28;20219;-43
2023/07/14 08:48:45;;;;;;;5.27;2.10;;;25.40;99.90;;;;;;5075474;28;20629;-44
2023/07/14 08:51:18;;;;;;;4.57;2.00;;;25.60;1.00;;;;;;5075290;28;20199;-41
2023/07/14 08:53:52;;;;;;;6.33;1.73;;;25.70;1.00;;;;;;5075437;28;20192;-40
2023/07/14 08:56:20;;;;;;;4.23;1.83;;;25.90;1.00;;;;;;5075121;28;20259;-43
2023/07/14 08:58:48;;;;;;;4.10;1.73;;;26.00;1.00;;;;;;5075357;28;20178;-45
2023/07/14 09:01:19;;;;;;;4.33;1.50;;;26.00;1.00;;;;;;5075380;28;20176;-44
2023/07/14 09:03:49;;;;;;;6.20;1.73;;;26.10;1.00;;;;;;5075555;28;20270;-43
2023/07/14 09:06:21;;;;;;;9.23;1.90;;;26.20;1.00;;;;;;5073586;28;20676;-41
2023/07/14 09:08:48;;;;;;;2.97;1.83;;;26.20;1.00;;;;;;5075043;28;20191;-43
2023/07/14 09:11:22;;;;;;;6.27;2.13;;;26.10;1.00;;;;;;5074919;28;20179;-43
2023/07/14 09:14:09;;;;;;;6.70;2.37;;;26.20;1.00;;;;;;5074635;28;20253;-41
2023/07/14 09:16:42;;;;;;;4.50;1.80;;;26.30;1.00;;;;;;5075501;28;20199;-41
2023/07/14 09:19:32;;;;;;;3.07;1.90;;;26.50;1.00;;;;;;5074846;28;20175;-43
2023/07/14 09:22:06;;;;;;;5.17;1.77;;;26.50;1.00;;;;;;5074798;28;20168;-43
2023/07/14 09:24:51;;;;;;;5.67;1.90;;;26.50;1.00;;;;;;5074884;28;20609;-43
2023/07/14 09:27:25;;;;;;;5.63;2.10;;;26.40;1.00;;;;;;5075099;28;20212;-45
2023/07/14 09:29:52;;;;;;;2.80;1.80;;;26.40;1.00;;;;;;5074708;28;20209;-43
2023/07/14 09:32:37;;;;;;;7.23;1.80;;;26.40;1.00;;;;;;5074686;28;20697;-42
2023/07/14 09:35:17;;;;;;;4.00;1.90;;;26.50;1.00;;;;;;5074427;28;20184;-44
2023/07/14 09:37:47;;;;;;;6.53;2.07;;;26.50;1.00;;;;;;5074625;28;20160;-44
2023/07/14 09:40:23;;;;;;;5.30;1.90;;;26.60;1.00;;;;;;5074417;28;20495;-43
2023/07/14 09:42:59;;;;;;;5.83;2.17;;;26.70;99.90;;;;;;5072949;28;20193;-43
2023/07/14 09:45:28;;;;;;;5.83;1.77;;;26.80;99.90;;;;;;5074436;28;20210;-44
2023/07/14 09:48:20;;;;;;;5.30;2.00;;;26.90;99.90;;;;;;5073250;28;20172;-44
2023/07/14 09:51:02;;;;;;;2.07;1.60;;;26.90;99.90;;;;;;5073922;28;20580;-47
2023/07/14 09:53:31;;;;;;;4.87;1.90;;;27.00;99.90;;;;;;5074747;28;20255;-44
2023/07/14 09:56:04;;;;;;;3.63;1.90;;;27.00;99.90;;;;;;5073919;28;20199;-44
2023/07/14 09:58:32;;;;;;;6.20;1.93;;;27.00;99.90;;;;;;5074107;28;20213;-44
2023/07/14 10:01:01;;;;;;;3.50;1.87;;;26.90;97.10;;;;;;5074080;28;20179;-44
2023/07/14 10:03:34;;;;;;;6.37;2.17;;;26.90;99.90;;;;;;5073682;28;20178;-45
2023/07/14 10:06:11;;;;;;;3.00;2.00;;;27.00;99.90;;;;;;5073809;28;20694;-44
2023/07/14 10:09:11;;;;;;;4.17;2.13;;;27.00;99.90;;;;;;5073813;28;20194;-45
2023/07/14 10:11:48;;;;;;;2.70;1.60;;;27.10;99.90;;;;;;5073590;28;20602;-44
2023/07/14 10:14:35;;;;;;;4.03;2.13;;;27.20;62.00;;;;;;5073948;28;20163;-43
2023/07/14 10:17:01;;;;;;;3.00;1.80;;;27.30;56.60;;;;;;5073821;28;20183;-44
2023/07/14 10:19:38;;;;;;;5.80;1.97;;;27.50;1.00;;;;;;5073532;28;20183;-46
2023/07/14 10:22:10;;;;;;;3.20;2.30;;;27.70;1.00;;;;;;5073828;28;20711;-44
2023/07/14 10:24:37;;;;;;;3.10;2.10;;;27.70;1.00;;;;;;5073645;28;20164;-45
2023/07/14 10:27:15;;;;;;;3.67;1.83;;;27.70;1.00;;;;;;5073445;28;20172;-44
2023/07/14 10:30:07;;;;;;;3.90;1.77;;;27.70;1.00;;;;;;5072471;28;20199;-46
2023/07/14 10:32:40;;;;;;;4.47;1.83;;;27.60;1.00;;;;;;5073629;28;20254;-44
2023/07/14 10:35:19;;;;;;;2.97;2.20;;;27.50;1.00;;;;;;5073560;28;20278;-44
2023/07/14 10:37:56;;;;;;;3.42;1.80;;;27.40;1.00;;;;;;5073660;28;20167;-44
2023/07/14 10:40:26;;;;;;;2.38;1.75;;;27.30;1.00;;;;;;5073509;28;20643;-43
2023/07/14 10:42:55;;;;;;;2.40;1.90;;;27.40;1.00;;;;;;5073248;28;20172;-44
2023/07/14 10:45:21;;;;;;;2.95;1.73;;;27.40;1.00;;;;;;5073431;28;20222;-43
2023/07/14 10:48:11;;;;;;;4.13;1.80;;;27.50;1.00;;;;;;5074074;28;20567;-44
2023/07/14 10:50:40;;;;;;;3.20;1.60;;;27.50;1.00;;;;;;5073506;28;20238;-43
2023/07/14 10:53:23;;;;;;;4.65;1.77;;;27.60;1.00;;;;;;5073422;28;20210;-45
2023/07/14 10:55:52;;;;;;;4.47;1.73;;;27.70;1.00;;;;;;5073041;28;20248;-43
2023/07/14 10:58:44;;;;;;;2.20;1.52;;;28.00;1.00;;;;;;5074186;28;20179;-44
2023/07/14 11:01:20;;;;;;;2.80;1.98;;;28.10;1.00;;;;;;5076731;28;20283;-45
2023/07/14 11:03:57;;;;;;;2.15;1.73;;;28.30;1.00;;;;;;5077460;28;20195;-44
2023/07/14 11:06:32;;;;;;;4.00;1.63;;;28.40;1.00;;;;;;5077151;28;20199;-43
2023/07/14 11:08:58;;;;;;;2.63;1.88;;;28.60;1.00;;;;;;5076897;28;20194;-44
2023/07/14 11:11:59;;;;;;;2.03;1.80;;;28.80;1.00;;;;;;5077008;28;20175;-45
2023/07/14 11:14:35;;;;;;;5.38;1.88;;;29.00;1.00;;;;;;5046423;28;20270;-43
2023/07/14 11:17:25;;;;;;;6.78;1.90;;;29.20;1.00;;;;;;5077193;28;20183;-44
2023/07/14 11:20:08;;;;;;;2.88;2.08;;;29.30;1.00;;;;;;5076981;28;20221;-44
2023/07/14 11:22:57;;;;;;;4.75;1.90;;;29.30;1.00;;;;;;5077100;28;20166;-45
2023/07/14 11:26:16;;;;;;;4.57;1.83;;;29.30;1.00;;;;;;5077094;28;20274;-45
2023/07/14 11:29:10;;;;;;;7.15;2.28;;;29.20;1.00;;;;;;4995596;28;20229;-45
2023/07/14 11:31:53;;;;;;;3.55;2.08;;;29.10;1.00;;;;;;5076938;28;20179;-44
2023/07/14 11:34:40;;;;;;;4.05;1.98;;;29.20;1.00;;;;;;5076903;28;20166;-45
2023/07/14 11:37:31;;;;;;;3.17;1.70;;;29.30;1.00;;;;;;5076924;28;20221;-45
2023/07/14 11:40:01;;;;;;;7.65;2.00;;;29.70;1.00;;;;;;5077107;28;20521;-43
2023/07/14 11:42:33;;;;;;;3.35;2.38;;;29.90;1.00;;;;;;5076685;28;20210;-43
2023/07/14 11:45:02;;;;;;;1.85;1.63;;;30.10;1.00;;;;;;5076610;28;20278;-45
2023/07/14 11:47:37;;;;;;;2.15;1.90;;;30.20;1.00;;;;;;5076545;28;20226;-45
2023/07/14 11:50:15;;;;;;;6.80;2.38;;;30.30;1.00;;;;;;5076221;28;20199;-46
2023/07/14 11:52:40;;;;;;;2.10;1.90;;;30.30;1.00;;;;;;5076481;28;20172;-44
2023/07/14 11:55:27;;;;;;;2.42;1.95;;;30.30;1.00;;;;;;5074698;28;20205;-44
2023/07/14 11:58:30;;;;;;;4.63;1.90;;;30.40;1.00;;;;;;5076249;28;20179;-43
2023/07/14 12:01:00;;;;;;;5.18;2.72;;;30.70;1.00;;;;;;5076382;28;20168;-44
2023/07/14 12:03:29;;;;;;;2.78;2.10;;;30.60;1.00;;;;;;5076304;28;20190;-44
2023/07/14 12:06:20;;;;;;;3.25;2.13;;;30.50;1.00;;;;;;5076149;28;20560;-44
2023/07/14 12:09:04;;;;;;;3.45;2.08;;;30.50;1.00;;;;;;5076165;28;20202;-44
2023/07/14 12:11:44;;;;;;;4.63;2.33;;;30.60;1.00;;;;;;5075118;28;20296;-45
2023/07/14 12:14:44;;;;;;;6.78;2.30;;;30.70;1.00;;;;;;5075999;28;20152;-44
2023/07/14 12:17:34;;;;;;;2.95;2.10;;;30.60;1.00;;;;;;5076110;28;20577;-43
2023/07/14 12:20:13;;;;;;;2.40;1.88;;;30.50;1.00;;;;;;5074392;28;20180;-45
2023/07/14 12:23:03;;;;;;;4.97;1.90;;;30.60;1.00;;;;;;5076262;28;20628;-44
2023/07/14 12:25:39;;;;;;;10.13;2.60;;;30.80;1.00;;;;;;5075509;28;20234;-44
2023/07/14 12:28:14;;;;;;;4.07;2.42;;;31.00;1.00;;;;;;5075889;28;20164;-44
2023/07/14 12:30:48;;;;;;;6.28;2.20;;;31.20;1.00;;;;;;5075814;28;20222;-44
2023/07/14 12:33:17;;;;;;;2.80;1.85;;;31.20;1.00;;;;;;5075812;28;20160;-45
2023/07/14 12:35:43;;;;;;;3.63;2.05;;;31.30;1.00;;;;;;5075358;28;20198;-44
2023/07/14 12:38:14;;;;;;;6.40;2.28;;;31.30;1.00;;;;;;5075324;28;20183;-44
2023/07/14 12:40:41;;;;;;;2.90;1.90;;;31.30;1.00;;;;;;5075497;28;20199;-45
2023/07/14 12:43:15;;;;;;;4.10;2.30;;;31.40;1.00;;;;;;5075498;28;20213;-45
2023/07/14 12:45:41;;;;;;;2.97;2.20;;;31.50;1.00;;;;;;5075375;28;20663;-45
2023/07/14 12:48:11;;;;;;;6.95;2.60;;;31.50;1.00;;;;;;5075191;28;20191;-44
2023/07/14 12:50:40;;;;;;;5.40;2.78;;;31.50;1.00;;;;;;5076181;28;20252;-45
2023/07/14 12:53:12;;;;;;;3.25;2.38;;;31.30;1.00;;;;;;5075342;28;20175;-44
2023/07/14 12:55:38;;;;;;;3.92;2.40;;;31.30;1.00;;;;;;5075268;28;20241;-45
2023/07/14 12:58:21;;;;;;;5.53;2.63;;;31.30;1.00;;;;;;5074939;28;20723;-44
2023/07/14 13:00:56;;;;;;;5.32;2.58;;;31.30;1.00;;;;;;5075480;28;20167;-45
2023/07/14 13:03:23;;;;;;;21.45;3.30;;;31.40;1.00;;;;;;5075214;28;20179;-46
2023/07/14 13:05:51;;;;;;;9.43;3.25;;;31.50;1.00;;;;;;5074794;28;20191;-44
2023/07/14 13:08:20;;;;;;;3.20;2.35;;;31.60;1.00;;;;;;5074645;28;20652;-44
2023/07/14 13:10:46;;;;;;;3.13;2.40;;;31.70;1.00;;;;;;5074709;28;20648;-45
2023/07/14 13:13:36;;;;;;;4.53;2.42;;;31.80;1.00;;;;;;5074948;28;20189;-45
2023/07/14 13:16:04;;;;;;;6.88;2.53;;;31.80;1.00;;;;;;5074552;28;20203;-44